sensor_id;sensor_type;location;lat;lon;timestamp;temperature;humidity
13684;DHT22;6914;53.552;9.908;2023-04-01T00:01:07;9.80;99.90
13684;DHT22;6914;53.552;9.908;2023-04-01T00:03:34;10.20;99.90
13684;DHT22;6914;53.552;9.908;2023-04-01T00:06:04;9.70;99.90
13684;DHT22;6914;53.552;9.908;2023-04-01T00:08:30;9.80;99.90
13684;DHT22;6914;53.552;9.908;2023-04-01T00:10:57;9.70;99.90
13684;DHT22;6914;53.552;9.908;2023-04-01T00:13:25;9.70;99.90
13684;DHT22;6914;53.552;9.908;2023-04-01T00:15:53;9.70;99.90
13684;DHT22;6914;53.552;9.908;2023-04-01T00:18:21;9.70;99.90
13684;DHT22;6914;53.552;9.908;2023-04-01T00:20:50;10.00;99.90
13684;DHT22;6914;53.552;9.908;2023-04-01T00:23:19;9.70;99.90
13684;DHT22;6914;53.552;9.908;2023-04-01T00:25:47;9.70;99.90
13684;DHT22;6914;53.552;9.908;2023-04-01T00:28:15;9.80;99.90
13684;DHT22;6914;53.552;9.908;2023-04-01T00:30:42;8.90;99.90
13684;DHT22;6914;53.552;9.908;2023-04-01T00:33:09;9.70;99.90
13684;DHT22;6914;53.552;9.908;2023-04-01T00:35:36;9.70;99.90
13684;DHT22;6914;53.552;9.908;2023-04-01T00:38:03;9.70;99.90
13684;DHT22;6914;53.552;9.908;2023-04-01T00:40:35;9.80;99.90
13684;DHT22;6914;53.552;9.908;2023-04-01T00:43:03;9.60;99.90
13684;DHT22;6914;53.552;9.908;2023-04-01T00:45:36;9.60;99.90
13684;DHT22;6914;53.552;9.908;2023-04-01T00:48:07;9.60;99.90
13684;DHT22;6914;53.552;9.908;2023-04-01T00:50:37;9.70;99.90
13684;DHT22;6914;53.552;9.908;2023-04-01T00:53:05;9.70;99.90
13684;DHT22;6914;53.552;9.908;2023-04-01T00:55:37;9.60;99.90
13684;DHT22;6914;53.552;9.908;2023-04-01T00:58:08;9.60;99.90
13684;DHT22;6914;53.552;9.908;2023-04-01T01:00:38;9.50;99.90
13684;DHT22;6914;53.552;9.908;2023-04-01T01:03:05;9.10;99.90
13684;DHT22;6914;53.552;9.908;2023-04-01T01:05:42;9.60;99.90
13684;DHT22;6914;53.552;9.908;2023-04-01T01:08:19;9.50;99.90
13684;DHT22;6914;53.552;9.908;2023-04-01T01:10:50;9.50;99.90
13684;DHT22;6914;53.552;9.908;2023-04-01T01:13:20;9.50;99.90
13684;DHT22;6914;53.552;9.908;2023-04-01T01:15:56;9.50;99.90
13684;DHT22;6914;53.552;9.908;2023-04-01T01:18:30;9.60;99.90
13684;DHT22;6914;53.552;9.908;2023-04-01T01:21:21;9.50;99.90
13684;DHT22;6914;53.552;9.908;2023-04-01T01:24:26;9.50;99.90
13684;DHT22;6914;53.552;9.908;2023-04-01T01:27:04;9.50;99.90
13684;DHT22;6914;53.552;9.908;2023-04-01T01:29:41;9.50;99.90
13684;DHT22;6914;53.552;9.908;2023-04-01T01:32:16;9.40;99.90
13684;DHT22;6914;53.552;9.908;2023-04-01T01:34:49;9.50;99.90
13684;DHT22;6914;53.552;9.908;2023-04-01T01:37:22;9.50;99.90
13684;DHT22;6914;53.552;9.908;2023-04-01T01:39:54;9.80;99.90
13684;DHT22;6914;53.552;9.908;2023-04-01T01:42:24;9.50;99.90
13684;DHT22;6914;53.552;9.908;2023-04-01T01:44:54;10.50;99.90
13684;DHT22;6914;53.552;9.908;2023-04-01T01:47:22;9.40;99.90
13684;DHT22;6914;53.552;9.908;2023-04-01T01:49:51;9.50;99.90
13684;DHT22;6914;53.552;9.908;2023-04-01T01:52:20;9.50;99.90
13684;DHT22;6914;53.552;9.908;2023-04-01T01:54:48;9.40;99.90
13684;DHT22;6914;53.552;9.908;2023-04-01T01:57:17;9.40;99.90
13684;DHT22;6914;53.552;9.908;2023-04-01T01:59:48;9.50;99.90
13684;DHT22;6914;53.552;9.908;2023-04-01T02:02:16;8.70;99.90
13684;DHT22;6914;53.552;9.908;2023-04-01T02:04:44;9.40;99.90
13684;DHT22;6914;53.552;9.908;2023-04-01T02:07:18;8.20;99.90
13684;DHT22;6914;53.552;9.908;2023-04-01T02:09:48;9.60;99.90
13684;DHT22;6914;53.552;9.908;2023-04-01T02:12:16;9.40;99.90
13684;DHT22;6914;53.552;9.908;2023-04-01T02:14:47;9.40;99.90
13684;DHT22;6914;53.552;9.908;2023-04-01T02:17:18;9.90;99.90
13684;DHT22;6914;53.552;9.908;2023-04-01T02:19:49;9.40;99.90
13684;DHT22;6914;53.552;9.908;2023-04-01T02:22:20;9.20;99.90
13684;DHT22;6914;53.552;9.908;2023-04-01T02:24:50;9.20;99.90
13684;DHT22;6914;53.552;9.908;2023-04-01T02:27:19;9.40;99.90
13684;DHT22;6914;53.552;9.908;2023-04-01T02:29:49;9.40;99.90
13684;DHT22;6914;53.552;9.908;2023-04-01T02:32:17;9.40;99.90
13684;DHT22;6914;53.552;9.908;2023-04-01T02:34:45;9.40;99.90
13684;DHT22;6914;53.552;9.908;2023-04-01T02:37:15;9.60;99.90
13684;DHT22;6914;53.552;9.908;2023-04-01T02:39:42;9.40;99.90
13684;DHT22;6914;53.552;9.908;2023-04-01T02:42:10;9.40;99.90
13684;DHT22;6914;53.552;9.908;2023-04-01T02:44:37;9.40;99.90
13684;DHT22;6914;53.552;9.908;2023-04-01T02:47:04;9.40;99.90
13684;DHT22;6914;53.552;9.908;2023-04-01T02:49:31;9.40;99.90
13684;DHT22;6914;53.552;9.908;2023-04-01T02:51:58;9.50;99.90
13684;DHT22;6914;53.552;9.908;2023-04-01T02:54:25;9.40;99.90
13684;DHT22;6914;53.552;9.908;2023-04-01T02:56:52;9.40;99.90
13684;DHT22;6914;53.552;9.908;2023-04-01T02:59:20;9.40;99.90
13684;DHT22;6914;53.552;9.908;2023-04-01T03:01:48;9.40;99.90
13684;DHT22;6914;53.552;9.908;2023-04-01T03:04:14;9.40;99.90
13684;DHT22;6914;53.552;9.908;2023-04-01T03:06:41;9.40;99.90
13684;DHT22;6914;53.552;9.908;2023-04-01T03:09:08;9.40;99.90
13684;DHT22;6914;53.552;9.908;2023-04-01T03:11:35;9.30;99.90
13684;DHT22;6914;53.552;9.908;2023-04-01T03:14:02;9.70;99.90
13684;DHT22;6914;53.552;9.908;2023-04-01T03:16:30;9.40;99.90
13684;DHT22;6914;53.552;9.908;2023-04-01T03:18:57;9.40;99.90
13684;DHT22;6914;53.552;9.908;2023-04-01T03:21:25;9.40;99.90
13684;DHT22;6914;53.552;9.908;2023-04-01T03:23:52;9.40;99.90
13684;DHT22;6914;53.552;9.908;2023-04-01T03:26:19;9.40;99.90
13684;DHT22;6914;53.552;9.908;2023-04-01T03:28:48;9.40;99.90
13684;DHT22;6914;53.552;9.908;2023-04-01T03:33:49;9.40;99.90
13684;DHT22;6914;53.552;9.908;2023-04-01T03:36:16;9.50;99.90
13684;DHT22;6914;53.552;9.908;2023-04-01T03:38:44;9.50;99.90
13684;DHT22;6914;53.552;9.908;2023-04-01T03:41:12;9.40;99.90
13684;DHT22;6914;53.552;9.908;2023-04-01T03:43:40;9.50;99.90
13684;DHT22;6914;53.552;9.908;2023-04-01T03:46:07;9.40;99.90
13684;DHT22;6914;53.552;9.908;2023-04-01T03:48:34;9.30;99.90
13684;DHT22;6914;53.552;9.908;2023-04-01T03:51:06;9.40;99.90
13684;DHT22;6914;53.552;9.908;2023-04-01T03:53:33;8.90;99.90
13684;DHT22;6914;53.552;9.908;2023-04-01T03:56:04;9.40;99.90
13684;DHT22;6914;53.552;9.908;2023-04-01T03:58:30;9.50;99.90
13684;DHT22;6914;53.552;9.908;2023-04-01T04:00:58;9.70;99.90
13684;DHT22;6914;53.552;9.908;2023-04-01T04:03:25;10.60;99.90
13684;DHT22;6914;53.552;9.908;2023-04-01T04:05:52;9.50;99.90
13684;DHT22;6914;53.552;9.908;2023-04-01T04:08:20;9.40;99.90
13684;DHT22;6914;53.552;9.908;2023-04-01T04:10:54;9.40;99.90
13684;DHT22;6914;53.552;9.908;2023-04-01T04:13:21;9.20;99.90
13684;DHT22;6914;53.552;9.908;2023-04-01T04:15:48;9.40;99.90
13684;DHT22;6914;53.552;9.908;2023-04-01T04:18:16;9.40;99.90
13684;DHT22;6914;53.552;9.908;2023-04-01T04:20:44;9.40;99.90
13684;DHT22;6914;53.552;9.908;2023-04-01T04:23:14;9.40;99.90
13684;DHT22;6914;53.552;9.908;2023-04-01T04:25:53;9.40;99.90
13684;DHT22;6914;53.552;9.908;2023-04-01T04:28:20;9.90;99.90
13684;DHT22;6914;53.552;9.908;2023-04-01T04:30:47;9.90;99.90
13684;DHT22;6914;53.552;9.908;2023-04-01T04:33:15;9.40;99.90
13684;DHT22;6914;53.552;9.908;2023-04-01T04:35:42;9.40;99.90
13684;DHT22;6914;53.552;9.908;2023-04-01T04:38:09;9.40;99.90
13684;DHT22;6914;53.552;9.908;2023-04-01T04:40:36;9.40;99.90
13684;DHT22;6914;53.552;9.908;2023-04-01T04:43:04;9.40;99.90
13684;DHT22;6914;53.552;9.908;2023-04-01T04:45:31;9.90;99.90
13684;DHT22;6914;53.552;9.908;2023-04-01T04:47:58;9.40;99.90
13684;DHT22;6914;53.552;9.908;2023-04-01T04:50:25;9.40;99.90
13684;DHT22;6914;53.552;9.908;2023-04-01T04:52:53;9.30;99.90
13684;DHT22;6914;53.552;9.908;2023-04-01T04:55:20;9.30;99.90
13684;DHT22;6914;53.552;9.908;2023-04-01T04:57:48;9.40;99.90
13684;DHT22;6914;53.552;9.908;2023-04-01T05:00:20;9.40;99.90
13684;DHT22;6914;53.552;9.908;2023-04-01T05:02:46;9.40;99.90
13684;DHT22;6914;53.552;9.908;2023-04-01T05:05:13;10.00;99.90
13684;DHT22;6914;53.552;9.908;2023-04-01T05:07:40;9.40;99.90
13684;DHT22;6914;53.552;9.908;2023-04-01T05:10:08;9.40;99.90
13684;DHT22;6914;53.552;9.908;2023-04-01T05:12:35;9.40;99.90
13684;DHT22;6914;53.552;9.908;2023-04-01T05:15:05;9.40;99.90
13684;DHT22;6914;53.552;9.908;2023-04-01T05:17:33;9.40;99.90
13684;DHT22;6914;53.552;9.908;2023-04-01T05:20:00;9.40;99.90
13684;DHT22;6914;53.552;9.908;2023-04-01T05:22:27;9.60;99.90
13684;DHT22;6914;53.552;9.908;2023-04-01T05:24:55;9.50;99.90
13684;DHT22;6914;53.552;9.908;2023-04-01T05:27:22;9.50;99.90
13684;DHT22;6914;53.552;9.908;2023-04-01T05:29:49;9.40;99.90
13684;DHT22;6914;53.552;9.908;2023-04-01T05:32:16;9.30;99.90
13684;DHT22;6914;53.552;9.908;2023-04-01T05:34:44;9.50;99.90
13684;DHT22;6914;53.552;9.908;2023-04-01T05:37:11;9.40;99.90
13684;DHT22;6914;53.552;9.908;2023-04-01T05:39:38;9.40;99.90
13684;DHT22;6914;53.552;9.908;2023-04-01T05:42:06;9.40;99.90
13684;DHT22;6914;53.552;9.908;2023-04-01T05:44:33;9.50;99.90
13684;DHT22;6914;53.552;9.908;2023-04-01T05:47:00;9.60;99.90
13684;DHT22;6914;53.552;9.908;2023-04-01T05:49:27;9.40;99.90
13684;DHT22;6914;53.552;9.908;2023-04-01T05:51:55;9.40;99.90
13684;DHT22;6914;53.552;9.908;2023-04-01T05:54:22;8.70;99.90
13684;DHT22;6914;53.552;9.908;2023-04-01T05:56:50;8.40;99.90
13684;DHT22;6914;53.552;9.908;2023-04-01T05:59:19;8.50;99.90
13684;DHT22;6914;53.552;9.908;2023-04-01T06:01:46;8.60;99.90
13684;DHT22;6914;53.552;9.908;2023-04-01T06:04:14;8.40;99.90
13684;DHT22;6914;53.552;9.908;2023-04-01T06:06:42;8.30;99.90
13684;DHT22;6914;53.552;9.908;2023-04-01T06:09:14;8.80;99.90
13684;DHT22;6914;53.552;9.908;2023-04-01T06:11:56;8.50;99.90
13684;DHT22;6914;53.552;9.908;2023-04-01T06:14:31;8.00;99.90
13684;DHT22;6914;53.552;9.908;2023-04-01T06:17:13;7.80;99.90
13684;DHT22;6914;53.552;9.908;2023-04-01T06:19:50;7.60;99.90
13684;DHT22;6914;53.552;9.908;2023-04-01T06:22:46;7.70;99.90
13684;DHT22;6914;53.552;9.908;2023-04-01T06:31:02;7.60;99.90
13684;DHT22;6914;53.552;9.908;2023-04-01T06:33:39;7.60;99.90
13684;DHT22;6914;53.552;9.908;2023-04-01T06:36:35;7.70;99.90
13684;DHT22;6914;53.552;9.908;2023-04-01T06:39:30;7.70;99.90
13684;DHT22;6914;53.552;9.908;2023-04-01T06:42:23;7.60;99.90
13684;DHT22;6914;53.552;9.908;2023-04-01T06:45:05;7.50;99.90
13684;DHT22;6914;53.552;9.908;2023-04-01T06:47:43;7.40;99.90
13684;DHT22;6914;53.552;9.908;2023-04-01T06:50:21;7.60;99.90
13684;DHT22;6914;53.552;9.908;2023-04-01T06:53:00;7.40;99.90
13684;DHT22;6914;53.552;9.908;2023-04-01T06:55:34;7.40;99.90
13684;DHT22;6914;53.552;9.908;2023-04-01T06:58:09;7.20;99.90
13684;DHT22;6914;53.552;9.908;2023-04-01T07:00:39;7.30;99.90
13684;DHT22;6914;53.552;9.908;2023-04-01T07:03:15;7.30;99.90
13684;DHT22;6914;53.552;9.908;2023-04-01T07:05:43;7.40;99.90
13684;DHT22;6914;53.552;9.908;2023-04-01T07:08:12;7.30;99.90
13684;DHT22;6914;53.552;9.908;2023-04-01T07:10:43;7.30;99.90
13684;DHT22;6914;53.552;9.908;2023-04-01T07:13:18;7.20;99.90
13684;DHT22;6914;53.552;9.908;2023-04-01T07:15:55;7.20;99.90
13684;DHT22;6914;53.552;9.908;2023-04-01T07:18:30;7.10;99.90
13684;DHT22;6914;53.552;9.908;2023-04-01T07:21:00;7.00;99.90
13684;DHT22;6914;53.552;9.908;2023-04-01T07:23:31;7.00;99.90
13684;DHT22;6914;53.552;9.908;2023-04-01T07:26:04;7.00;99.90
13684;DHT22;6914;53.552;9.908;2023-04-01T07:28:34;6.30;99.90
13684;DHT22;6914;53.552;9.908;2023-04-01T07:31:11;7.00;99.90
13684;DHT22;6914;53.552;9.908;2023-04-01T07:33:44;7.00;99.90
13684;DHT22;6914;53.552;9.908;2023-04-01T07:36:16;6.80;99.90
13684;DHT22;6914;53.552;9.908;2023-04-01T07:38:56;6.60;99.90
13684;DHT22;6914;53.552;9.908;2023-04-01T07:41:30;7.00;99.90
13684;DHT22;6914;53.552;9.908;2023-04-01T07:44:08;6.50;99.90
13684;DHT22;6914;53.552;9.908;2023-04-01T07:46:51;6.60;99.90
13684;DHT22;6914;53.552;9.908;2023-04-01T07:49:26;6.70;99.90
13684;DHT22;6914;53.552;9.908;2023-04-01T07:51:59;6.70;99.90
13684;DHT22;6914;53.552;9.908;2023-04-01T07:54:34;6.60;99.90
13684;DHT22;6914;53.552;9.908;2023-04-01T07:57:10;6.50;99.90
13684;DHT22;6914;53.552;9.908;2023-04-01T07:59:45;6.50;99.90
13684;DHT22;6914;53.552;9.908;2023-04-01T08:02:30;6.40;99.90
13684;DHT22;6914;53.552;9.908;2023-04-01T08:05:04;6.50;99.90
13684;DHT22;6914;53.552;9.908;2023-04-01T08:07:39;6.50;99.90
13684;DHT22;6914;53.552;9.908;2023-04-01T08:10:13;6.50;99.90
13684;DHT22;6914;53.552;9.908;2023-04-01T08:12:50;6.40;99.90
13684;DHT22;6914;53.552;9.908;2023-04-01T08:15:26;5.80;99.90
13684;DHT22;6914;53.552;9.908;2023-04-01T08:18:03;6.50;99.90
13684;DHT22;6914;53.552;9.908;2023-04-01T08:20:34;6.50;99.90
13684;DHT22;6914;53.552;9.908;2023-04-01T08:23:10;6.40;99.90
13684;DHT22;6914;53.552;9.908;2023-04-01T08:25:40;5.70;99.90
13684;DHT22;6914;53.552;9.908;2023-04-01T08:28:15;6.50;99.90
13684;DHT22;6914;53.552;9.908;2023-04-01T08:30:49;6.70;99.90
13684;DHT22;6914;53.552;9.908;2023-04-01T08:33:21;6.30;99.90
13684;DHT22;6914;53.552;9.908;2023-04-01T08:35:56;6.30;99.90
13684;DHT22;6914;53.552;9.908;2023-04-01T08:38:29;6.20;99.90
13684;DHT22;6914;53.552;9.908;2023-04-01T08:41:11;6.40;99.90
13684;DHT22;6914;53.552;9.908;2023-04-01T08:44:12;6.40;99.90
13684;DHT22;6914;53.552;9.908;2023-04-01T08:47:02;7.30;99.90
13684;DHT22;6914;53.552;9.908;2023-04-01T08:49:56;6.40;99.90
13684;DHT22;6914;53.552;9.908;2023-04-01T08:52:34;6.50;99.90
13684;DHT22;6914;53.552;9.908;2023-04-01T08:58:33;6.50;99.90
13684;DHT22;6914;53.552;9.908;2023-04-01T09:01:14;6.30;99.90
13684;DHT22;6914;53.552;9.908;2023-04-01T09:06:57;6.60;99.90
13684;DHT22;6914;53.552;9.908;2023-04-01T09:18:39;5.50;99.90
13684;DHT22;6914;53.552;9.908;2023-04-01T09:21:34;6.80;99.90
13684;DHT22;6914;53.552;9.908;2023-04-01T09:27:04;6.80;99.90
13684;DHT22;6914;53.552;9.908;2023-04-01T09:30:06;6.60;99.90
13684;DHT22;6914;53.552;9.908;2023-04-01T09:32:42;6.20;99.90
13684;DHT22;6914;53.552;9.908;2023-04-01T09:35:22;6.70;99.90
13684;DHT22;6914;53.552;9.908;2023-04-01T09:37:58;6.60;99.90
13684;DHT22;6914;53.552;9.908;2023-04-01T09:40:42;6.50;99.90
13684;DHT22;6914;53.552;9.908;2023-04-01T09:43:21;6.50;99.90
13684;DHT22;6914;53.552;9.908;2023-04-01T09:46:10;5.80;99.90
13684;DHT22;6914;53.552;9.908;2023-04-01T09:49:03;6.60;99.90
13684;DHT22;6914;53.552;9.908;2023-04-01T09:51:41;6.60;99.90
13684;DHT22;6914;53.552;9.908;2023-04-01T09:54:21;6.60;99.90
13684;DHT22;6914;53.552;9.908;2023-04-01T10:00:45;6.90;99.90
13684;DHT22;6914;53.552;9.908;2023-04-01T10:06:58;6.60;99.90
13684;DHT22;6914;53.552;9.908;2023-04-01T10:13:05;6.60;99.90
13684;DHT22;6914;53.552;9.908;2023-04-01T10:16:01;6.70;99.90
13684;DHT22;6914;53.552;9.908;2023-04-01T10:21:31;6.80;99.90
13684;DHT22;6914;53.552;9.908;2023-04-01T10:27:21;6.70;99.90
13684;DHT22;6914;53.552;9.908;2023-04-01T10:30:24;6.70;99.90
13684;DHT22;6914;53.552;9.908;2023-04-01T10:33:24;6.70;99.90
13684;DHT22;6914;53.552;9.908;2023-04-01T10:36:41;6.70;99.90
13684;DHT22;6914;53.552;9.908;2023-04-01T10:39:37;6.20;99.90
13684;DHT22;6914;53.552;9.908;2023-04-01T10:42:33;7.30;99.90
13684;DHT22;6914;53.552;9.908;2023-04-01T10:48:41;6.80;99.90
13684;DHT22;6914;53.552;9.908;2023-04-01T10:51:38;7.00;99.90
13684;DHT22;6914;53.552;9.908;2023-04-01T10:54:48;6.80;99.90
13684;DHT22;6914;53.552;9.908;2023-04-01T10:57:40;6.80;99.90
13684;DHT22;6914;53.552;9.908;2023-04-01T11:00:53;6.70;99.90
13684;DHT22;6914;53.552;9.908;2023-04-01T11:03:54;6.80;99.90
13684;DHT22;6914;53.552;9.908;2023-04-01T11:07:05;6.80;99.90
13684;DHT22;6914;53.552;9.908;2023-04-01T11:15:46;6.80;99.90
13684;DHT22;6914;53.552;9.908;2023-04-01T11:18:47;6.80;99.90
13684;DHT22;6914;53.552;9.908;2023-04-01T11:21:45;6.80;99.90
13684;DHT22;6914;53.552;9.908;2023-04-01T11:27:30;6.80;99.90
13684;DHT22;6914;53.552;9.908;2023-04-01T11:30:17;6.80;99.90
13684;DHT22;6914;53.552;9.908;2023-04-01T11:33:02;7.00;99.90
13684;DHT22;6914;53.552;9.908;2023-04-01T11:35:51;6.60;99.90
13684;DHT22;6914;53.552;9.908;2023-04-01T11:38:35;6.70;99.90
13684;DHT22;6914;53.552;9.908;2023-04-01T11:41:19;6.70;99.90
13684;DHT22;6914;53.552;9.908;2023-04-01T11:44:03;6.60;99.90
13684;DHT22;6914;53.552;9.908;2023-04-01T11:46:42;6.60;99.90
13684;DHT22;6914;53.552;9.908;2023-04-01T11:49:26;6.60;99.90
13684;DHT22;6914;53.552;9.908;2023-04-01T11:52:18;6.60;99.90
13684;DHT22;6914;53.552;9.908;2023-04-01T11:55:19;7.40;99.90
13684;DHT22;6914;53.552;9.908;2023-04-01T11:58:11;6.30;99.90
13684;DHT22;6914;53.552;9.908;2023-04-01T12:00:58;6.60;99.90
13684;DHT22;6914;53.552;9.908;2023-04-01T12:03:51;6.50;99.90
13684;DHT22;6914;53.552;9.908;2023-04-01T12:06:23;6.60;99.90
13684;DHT22;6914;53.552;9.908;2023-04-01T12:09:01;6.70;99.90
13684;DHT22;6914;53.552;9.908;2023-04-01T12:11:36;6.40;99.90
13684;DHT22;6914;53.552;9.908;2023-04-01T12:14:11;6.40;99.90
13684;DHT22;6914;53.552;9.908;2023-04-01T12:16:52;8.00;99.90
13684;DHT22;6914;53.552;9.908;2023-04-01T12:19:27;7.30;99.90
13684;DHT22;6914;53.552;9.908;2023-04-01T12:22:09;6.30;99.90
13684;DHT22;6914;53.552;9.908;2023-04-01T12:24:47;6.30;99.90
13684;DHT22;6914;53.552;9.908;2023-04-01T12:30:32;6.30;99.90
13684;DHT22;6914;53.552;9.908;2023-04-01T12:33:16;6.20;99.90
13684;DHT22;6914;53.552;9.908;2023-04-01T12:35:53;5.80;99.90
13684;DHT22;6914;53.552;9.908;2023-04-01T12:38:31;6.20;99.90
13684;DHT22;6914;53.552;9.908;2023-04-01T12:41:17;6.20;99.90
13684;DHT22;6914;53.552;9.908;2023-04-01T12:44:16;6.10;99.90
13684;DHT22;6914;53.552;9.908;2023-04-01T12:47:11;6.20;99.90
13684;DHT22;6914;53.552;9.908;2023-04-01T12:49:55;6.40;99.90
13684;DHT22;6914;53.552;9.908;2023-04-01T12:52:34;6.30;99.90
13684;DHT22;6914;53.552;9.908;2023-04-01T12:55:23;6.10;99.90
13684;DHT22;6914;53.552;9.908;2023-04-01T12:58:19;6.30;99.90
13684;DHT22;6914;53.552;9.908;2023-04-01T13:01:04;6.30;99.90
13684;DHT22;6914;53.552;9.908;2023-04-01T13:03:48;6.20;99.90
13684;DHT22;6914;53.552;9.908;2023-04-01T13:06:45;6.30;99.90
13684;DHT22;6914;53.552;9.908;2023-04-01T13:09:23;6.30;99.90
13684;DHT22;6914;53.552;9.908;2023-04-01T13:12:18;6.20;99.90
13684;DHT22;6914;53.552;9.908;2023-04-01T13:15:12;6.20;99.90
13684;DHT22;6914;53.552;9.908;2023-04-01T13:17:46;6.10;99.90
13684;DHT22;6914;53.552;9.908;2023-04-01T13:20:20;6.20;99.90
13684;DHT22;6914;53.552;9.908;2023-04-01T13:23:00;6.10;99.90
13684;DHT22;6914;53.552;9.908;2023-04-01T13:25:36;4.80;99.90
13684;DHT22;6914;53.552;9.908;2023-04-01T13:28:12;5.80;99.90
13684;DHT22;6914;53.552;9.908;2023-04-01T13:30:49;5.90;99.90
13684;DHT22;6914;53.552;9.908;2023-04-01T13:33:27;5.90;99.90
13684;DHT22;6914;53.552;9.908;2023-04-01T13:36:08;6.00;99.90
13684;DHT22;6914;53.552;9.908;2023-04-01T13:38:50;5.80;99.90
13684;DHT22;6914;53.552;9.908;2023-04-01T13:41:35;5.60;99.90
13684;DHT22;6914;53.552;9.908;2023-04-01T13:44:11;5.70;99.90
13684;DHT22;6914;53.552;9.908;2023-04-01T13:47:12;5.40;99.90
13684;DHT22;6914;53.552;9.908;2023-04-01T13:52:55;5.80;99.90
13684;DHT22;6914;53.552;9.908;2023-04-01T13:55:45;5.70;99.90
13684;DHT22;6914;53.552;9.908;2023-04-01T14:01:10;5.80;99.90
13684;DHT22;6914;53.552;9.908;2023-04-01T14:04:02;5.80;99.90
13684;DHT22;6914;53.552;9.908;2023-04-01T14:06:36;5.90;99.90
13684;DHT22;6914;53.552;9.908;2023-04-01T14:09:16;5.40;99.90
13684;DHT22;6914;53.552;9.908;2023-04-01T14:11:55;5.90;99.90
13684;DHT22;6914;53.552;9.908;2023-04-01T14:14:32;5.80;99.90
13684;DHT22;6914;53.552;9.908;2023-04-01T14:17:28;5.80;99.90
13684;DHT22;6914;53.552;9.908;2023-04-01T14:20:16;5.80;99.90
13684;DHT22;6914;53.552;9.908;2023-04-01T14:22:56;5.80;99.90
13684;DHT22;6914;53.552;9.908;2023-04-01T14:26:00;5.80;99.90
13684;DHT22;6914;53.552;9.908;2023-04-01T14:28:34;5.80;99.90
13684;DHT22;6914;53.552;9.908;2023-04-01T14:31:20;6.00;99.90
13684;DHT22;6914;53.552;9.908;2023-04-01T14:34:00;5.90;99.90
13684;DHT22;6914;53.552;9.908;2023-04-01T14:36:45;6.00;99.90
13684;DHT22;6914;53.552;9.908;2023-04-01T14:39:33;6.00;99.90
13684;DHT22;6914;53.552;9.908;2023-04-01T14:42:14;6.00;99.90
13684;DHT22;6914;53.552;9.908;2023-04-01T14:45:06;6.00;99.90
13684;DHT22;6914;53.552;9.908;2023-04-01T14:47:46;6.10;99.90
13684;DHT22;6914;53.552;9.908;2023-04-01T14:50:16;6.50;99.90
13684;DHT22;6914;53.552;9.908;2023-04-01T14:52:55;6.00;99.90
13684;DHT22;6914;53.552;9.908;2023-04-01T14:55:33;5.20;99.90
13684;DHT22;6914;53.552;9.908;2023-04-01T14:58:09;5.80;99.90
13684;DHT22;6914;53.552;9.908;2023-04-01T15:00:47;5.60;99.90
13684;DHT22;6914;53.552;9.908;2023-04-01T15:03:20;5.60;99.90
13684;DHT22;6914;53.552;9.908;2023-04-01T15:05:52;5.50;99.90
13684;DHT22;6914;53.552;9.908;2023-04-01T15:08:24;5.50;99.90
13684;DHT22;6914;53.552;9.908;2023-04-01T15:11:13;5.50;99.90
13684;DHT22;6914;53.552;9.908;2023-04-01T15:14:08;5.40;99.90
13684;DHT22;6914;53.552;9.908;2023-04-01T15:16:44;5.30;99.90
13684;DHT22;6914;53.552;9.908;2023-04-01T15:19:18;5.40;99.90
13684;DHT22;6914;53.552;9.908;2023-04-01T15:22:07;5.30;99.90
13684;DHT22;6914;53.552;9.908;2023-04-01T15:24:47;5.40;99.90
13684;DHT22;6914;53.552;9.908;2023-04-01T15:27:29;5.30;99.90
13684;DHT22;6914;53.552;9.908;2023-04-01T15:30:21;4.00;99.90
13684;DHT22;6914;53.552;9.908;2023-04-01T15:33:05;5.30;99.90
13684;DHT22;6914;53.552;9.908;2023-04-01T15:35:39;5.30;99.90
13684;DHT22;6914;53.552;9.908;2023-04-01T15:38:24;5.10;99.90
13684;DHT22;6914;53.552;9.908;2023-04-01T15:41:01;6.20;99.90
13684;DHT22;6914;53.552;9.908;2023-04-01T15:43:40;5.20;99.90
13684;DHT22;6914;53.552;9.908;2023-04-01T15:46:30;5.30;99.90
13684;DHT22;6914;53.552;9.908;2023-04-01T15:49:11;4.90;99.90
13684;DHT22;6914;53.552;9.908;2023-04-01T15:51:58;5.10;99.90
13684;DHT22;6914;53.552;9.908;2023-04-01T15:57:30;5.00;99.90
13684;DHT22;6914;53.552;9.908;2023-04-01T16:00:11;6.00;99.90
13684;DHT22;6914;53.552;9.908;2023-04-01T16:02:46;5.00;99.90
13684;DHT22;6914;53.552;9.908;2023-04-01T16:05:27;4.60;99.90
13684;DHT22;6914;53.552;9.908;2023-04-01T16:08:10;4.90;99.90
13684;DHT22;6914;53.552;9.908;2023-04-01T16:10:55;4.80;99.90
13684;DHT22;6914;53.552;9.908;2023-04-01T16:13:44;4.80;99.90
13684;DHT22;6914;53.552;9.908;2023-04-01T16:16:21;4.70;99.90
13684;DHT22;6914;53.552;9.908;2023-04-01T16:19:29;4.80;99.90
13684;DHT22;6914;53.552;9.908;2023-04-01T16:22:02;4.80;99.90
13684;DHT22;6914;53.552;9.908;2023-04-01T16:24:35;4.80;99.90
13684;DHT22;6914;53.552;9.908;2023-04-01T16:27:09;4.80;99.90
13684;DHT22;6914;53.552;9.908;2023-04-01T16:29:45;4.80;99.90
13684;DHT22;6914;53.552;9.908;2023-04-01T16:32:31;4.90;99.90
13684;DHT22;6914;53.552;9.908;2023-04-01T16:35:16;4.70;99.90
13684;DHT22;6914;53.552;9.908;2023-04-01T16:37:49;4.30;99.90
13684;DHT22;6914;53.552;9.908;2023-04-01T16:40:25;4.60;99.90
13684;DHT22;6914;53.552;9.908;2023-04-01T16:43:09;4.60;99.90
13684;DHT22;6914;53.552;9.908;2023-04-01T16:45:42;4.60;99.90
13684;DHT22;6914;53.552;9.908;2023-04-01T16:48:13;4.60;99.90
13684;DHT22;6914;53.552;9.908;2023-04-01T16:50:49;5.40;99.90
13684;DHT22;6914;53.552;9.908;2023-04-01T16:53:25;3.70;99.90
13684;DHT22;6914;53.552;9.908;2023-04-01T16:56:07;4.40;99.90
13684;DHT22;6914;53.552;9.908;2023-04-01T16:58:41;4.40;99.90
13684;DHT22;6914;53.552;9.908;2023-04-01T17:01:13;4.50;99.90
13684;DHT22;6914;53.552;9.908;2023-04-01T17:03:44;4.40;99.90
13684;DHT22;6914;53.552;9.908;2023-04-01T17:06:23;4.40;99.90
13684;DHT22;6914;53.552;9.908;2023-04-01T17:09:13;4.40;99.90
13684;DHT22;6914;53.552;9.908;2023-04-01T17:11:51;4.40;99.90
13684;DHT22;6914;53.552;9.908;2023-04-01T17:14:25;4.30;99.90
13684;DHT22;6914;53.552;9.908;2023-04-01T17:17:06;3.90;99.90
13684;DHT22;6914;53.552;9.908;2023-04-01T17:19:49;4.80;99.90
13684;DHT22;6914;53.552;9.908;2023-04-01T17:22:31;4.30;99.90
13684;DHT22;6914;53.552;9.908;2023-04-01T17:25:17;4.30;99.90
13684;DHT22;6914;53.552;9.908;2023-04-01T17:27:51;4.30;99.90
13684;DHT22;6914;53.552;9.908;2023-04-01T17:30:26;4.10;99.90
13684;DHT22;6914;53.552;9.908;2023-04-01T17:33:37;4.10;99.90
13684;DHT22;6914;53.552;9.908;2023-04-01T17:36:12;4.10;99.90
13684;DHT22;6914;53.552;9.908;2023-04-01T17:38:54;4.00;99.90
13684;DHT22;6914;53.552;9.908;2023-04-01T17:41:32;4.30;99.90
13684;DHT22;6914;53.552;9.908;2023-04-01T17:44:15;4.00;99.90
13684;DHT22;6914;53.552;9.908;2023-04-01T17:47:00;4.60;99.90
13684;DHT22;6914;53.552;9.908;2023-04-01T17:49:35;4.20;99.90
13684;DHT22;6914;53.552;9.908;2023-04-01T17:52:10;4.00;99.90
13684;DHT22;6914;53.552;9.908;2023-04-01T17:54:48;4.10;99.90
13684;DHT22;6914;53.552;9.908;2023-04-01T17:57:36;4.10;99.90
13684;DHT22;6914;53.552;9.908;2023-04-01T18:00:18;5.40;99.90
13684;DHT22;6914;53.552;9.908;2023-04-01T18:02:56;4.10;99.90
13684;DHT22;6914;53.552;9.908;2023-04-01T18:05:33;4.10;99.90
13684;DHT22;6914;53.552;9.908;2023-04-01T18:08:16;3.30;99.90
13684;DHT22;6914;53.552;9.908;2023-04-01T18:10:54;4.20;99.90
13684;DHT22;6914;53.552;9.908;2023-04-01T18:13:36;4.50;99.90